sensor_id;sensor_type;location;lat;lon;timestamp;pressure;altitude;pressure_sealevel;temperature;humidity
40612;BME280;26317;44.894;20.286;2023-03-13T00:02:34;101247.31;;;4.04;69.75
40612;BME280;26317;44.894;20.286;2023-03-13T00:05:09;101258.50;;;4.06;70.09
40612;BME280;26317;44.894;20.286;2023-03-13T00:07:51;101250.97;;;4.03;70.09
40612;BME280;26317;44.894;20.286;2023-03-13T00:10:28;101257.94;;;4.04;70.01
40612;BME280;26317;44.894;20.286;2023-03-13T00:13:09;101262.84;;;4.00;70.08
40612;BME280;26317;44.894;20.286;2023-03-13T00:15:48;101274.66;;;3.98;70.32
40612;BME280;26317;44.894;20.286;2023-03-13T00:18:25;101255.34;;;3.78;70.44
40612;BME280;26317;44.894;20.286;2023-03-13T00:21:22;101282.88;;;3.90;70.62
40612;BME280;26317;44.894;20.286;2023-03-13T00:24:09;101258.63;;;3.80;70.51
40612;BME280;26317;44.894;20.286;2023-03-13T00:26:53;101266.97;;;3.77;70.85
40612;BME280;26317;44.894;20.286;2023-03-13T00:29:37;101251.50;;;3.67;70.86
40612;BME280;26317;44.894;20.286;2023-03-13T00:32:14;101269.63;;;3.77;70.87
40612;BME280;26317;44.894;20.286;2023-03-13T00:34:57;101294.31;;;3.84;70.82
40612;BME280;26317;44.894;20.286;2023-03-13T00:37:36;101250.72;;;3.53;71.16
40612;BME280;26317;44.894;20.286;2023-03-13T00:40:29;101282.50;;;3.80;71.26
40612;BME280;26317;44.894;20.286;2023-03-13T00:43:16;101271.25;;;3.78;71.12
40612;BME280;26317;44.894;20.286;2023-03-13T00:45:59;101282.69;;;3.78;71.53
40612;BME280;26317;44.894;20.286;2023-03-13T00:48:39;101290.25;;;3.75;71.34
40612;BME280;26317;44.894;20.286;2023-03-13T00:51:33;101286.38;;;3.70;71.68
40612;BME280;26317;44.894;20.286;2023-03-13T00:54:10;101282.09;;;3.69;72.10
40612;BME280;26317;44.894;20.286;2023-03-13T00:56:49;101285.75;;;3.68;71.89
40612;BME280;26317;44.894;20.286;2023-03-13T00:59:27;101275.19;;;3.62;71.97
40612;BME280;26317;44.894;20.286;2023-03-13T01:02:05;101269.44;;;3.65;71.94
40612;BME280;26317;44.894;20.286;2023-03-13T01:04:47;101267.00;;;3.63;72.29
40612;BME280;26317;44.894;20.286;2023-03-13T01:07:30;101268.88;;;3.63;72.21
40612;BME280;26317;44.894;20.286;2023-03-13T01:10:32;101276.00;;;3.62;72.21
40612;BME280;26317;44.894;20.286;2023-03-13T01:13:15;101277.66;;;3.50;72.26
40612;BME280;26317;44.894;20.286;2023-03-13T01:15:54;101282.94;;;3.44;72.25
40612;BME280;26317;44.894;20.286;2023-03-13T01:18:28;101302.13;;;3.52;72.40
40612;BME280;26317;44.894;20.286;2023-03-13T01:21:16;101307.41;;;3.52;72.60
40612;BME280;26317;44.894;20.286;2023-03-13T01:24:12;101300.47;;;3.51;72.61
40612;BME280;26317;44.894;20.286;2023-03-13T01:27:05;101303.75;;;3.53;72.48
40612;BME280;26317;44.894;20.286;2023-03-13T01:29:47;101280.53;;;3.42;72.54
40612;BME280;26317;44.894;20.286;2023-03-13T01:32:27;101305.78;;;3.58;72.33
40612;BME280;26317;44.894;20.286;2023-03-13T01:35:05;101298.03;;;3.50;72.30
40612;BME280;26317;44.894;20.286;2023-03-13T01:37:42;101308.03;;;3.54;72.07
40612;BME280;26317;44.894;20.286;2023-03-13T01:40:31;101315.97;;;3.48;72.39
40612;BME280;26317;44.894;20.286;2023-03-13T01:43:28;101312.13;;;3.37;72.59
40612;BME280;26317;44.894;20.286;2023-03-13T01:46:19;101320.69;;;3.39;72.86
40612;BME280;26317;44.894;20.286;2023-03-13T01:49:26;101317.22;;;3.39;72.74
40612;BME280;26317;44.894;20.286;2023-03-13T01:52:25;101342.91;;;3.45;72.32
40612;BME280;26317;44.894;20.286;2023-03-13T01:55:15;101331.28;;;3.33;72.80
40612;BME280;26317;44.894;20.286;2023-03-13T01:57:53;101345.56;;;3.38;73.14
40612;BME280;26317;44.894;20.286;2023-03-13T02:00:31;101336.38;;;3.34;73.21
40612;BME280;26317;44.894;20.286;2023-03-13T02:03:28;101343.53;;;3.40;73.28
40612;BME280;26317;44.894;20.286;2023-03-13T02:06:14;101341.09;;;3.45;73.44
40612;BME280;26317;44.894;20.286;2023-03-13T02:08:56;101343.72;;;3.52;73.03
40612;BME280;26317;44.894;20.286;2023-03-13T02:11:48;101331.69;;;3.49;72.56
40612;BME280;26317;44.894;20.286;2023-03-13T02:14:27;101328.66;;;3.46;72.23
40612;BME280;26317;44.894;20.286;2023-03-13T02:17:08;101331.28;;;3.39;72.30
40612;BME280;26317;44.894;20.286;2023-03-13T02:20:01;101311.50;;;3.22;72.97
40612;BME280;26317;44.894;20.286;2023-03-13T02:22:41;101323.34;;;3.33;72.94
40612;BME280;26317;44.894;20.286;2023-03-13T02:25:36;101318.22;;;3.31;73.07
40612;BME280;26317;44.894;20.286;2023-03-13T02:28:28;101320.47;;;3.34;72.70
40612;BME280;26317;44.894;20.286;2023-03-13T02:31:12;101320.28;;;3.29;72.59
40612;BME280;26317;44.894;20.286;2023-03-13T02:33:51;101329.25;;;3.28;72.77
40612;BME280;26317;44.894;20.286;2023-03-13T02:36:29;101316.59;;;3.23;72.83
40612;BME280;26317;44.894;20.286;2023-03-13T02:39:11;101313.13;;;3.23;72.97
40612;BME280;26317;44.894;20.286;2023-03-13T02:41:56;101309.66;;;3.16;72.76
40612;BME280;26317;44.894;20.286;2023-03-13T02:44:54;101314.34;;;3.14;72.84
40612;BME280;26317;44.894;20.286;2023-03-13T02:47:29;101315.16;;;3.14;72.80
40612;BME280;26317;44.894;20.286;2023-03-13T02:50:18;101303.72;;;3.01;72.48
40612;BME280;26317;44.894;20.286;2023-03-13T02:53:13;101285.97;;;2.88;72.44
40612;BME280;26317;44.894;20.286;2023-03-13T02:58:45;101334.31;;;3.10;72.38
40612;BME280;26317;44.894;20.286;2023-03-13T03:01:28;101321.03;;;2.97;72.43
40612;BME280;26317;44.894;20.286;2023-03-13T03:04:15;101320.84;;;2.98;72.45
40612;BME280;26317;44.894;20.286;2023-03-13T03:06:56;101342.28;;;3.10;72.48
40612;BME280;26317;44.894;20.286;2023-03-13T03:09:48;101346.38;;;3.12;72.89
40612;BME280;26317;44.894;20.286;2023-03-13T03:12:25;101335.34;;;3.09;72.29
40612;BME280;26317;44.894;20.286;2023-03-13T03:15:12;101328.19;;;3.09;72.30
40612;BME280;26317;44.894;20.286;2023-03-13T03:17:53;101331.25;;;3.06;72.20
40612;BME280;26317;44.894;20.286;2023-03-13T03:20:39;101334.09;;;3.05;72.43
40612;BME280;26317;44.894;20.286;2023-03-13T03:23:16;101332.72;;;3.09;72.46
40612;BME280;26317;44.894;20.286;2023-03-13T03:25:54;101321.66;;;3.05;72.38
40612;BME280;26317;44.894;20.286;2023-03-13T03:28:33;101324.31;;;3.05;72.23
40612;BME280;26317;44.894;20.286;2023-03-13T03:31:23;101327.19;;;3.04;72.15
40612;BME280;26317;44.894;20.286;2023-03-13T03:34:00;101315.13;;;3.01;72.56
40612;BME280;26317;44.894;20.286;2023-03-13T03:36:42;101309.44;;;2.98;72.74
40612;BME280;26317;44.894;20.286;2023-03-13T03:39:31;101317.78;;;3.01;72.90
40612;BME280;26317;44.894;20.286;2023-03-13T03:42:12;101316.38;;;2.99;73.10
40612;BME280;26317;44.894;20.286;2023-03-13T03:44:57;101318.41;;;2.97;73.24
40612;BME280;26317;44.894;20.286;2023-03-13T03:47:54;101288.03;;;2.80;73.05
40612;BME280;26317;44.894;20.286;2023-03-13T03:53:29;101306.78;;;2.98;73.50
40612;BME280;26317;44.894;20.286;2023-03-13T03:56:11;101290.69;;;2.86;73.23
40612;BME280;26317;44.894;20.286;2023-03-13T03:58:56;101318.81;;;2.94;73.17
40612;BME280;26317;44.894;20.286;2023-03-13T04:01:52;101316.56;;;2.97;73.33
40612;BME280;26317;44.894;20.286;2023-03-13T04:04:32;101318.63;;;3.02;73.43
40612;BME280;26317;44.894;20.286;2023-03-13T04:07:34;101324.53;;;3.04;72.91
40612;BME280;26317;44.894;20.286;2023-03-13T04:10:13;101318.19;;;3.05;72.73
40612;BME280;26317;44.894;20.286;2023-03-13T04:12:52;101304.13;;;2.98;72.94
40612;BME280;26317;44.894;20.286;2023-03-13T04:15:29;101333.50;;;3.03;72.95
40612;BME280;26317;44.894;20.286;2023-03-13T04:18:10;101290.03;;;2.71;72.89
40612;BME280;26317;44.894;20.286;2023-03-13T04:23:44;101341.22;;;2.98;73.62
40612;BME280;26317;44.894;20.286;2023-03-13T04:26:34;101343.28;;;2.96;73.79
40612;BME280;26317;44.894;20.286;2023-03-13T04:29:12;101334.69;;;2.87;73.59
40612;BME280;26317;44.894;20.286;2023-03-13T04:32:19;101350.19;;;2.97;73.72
40612;BME280;26317;44.894;20.286;2023-03-13T04:35:27;101352.25;;;2.95;73.63
40612;BME280;26317;44.894;20.286;2023-03-13T04:38:39;101302.25;;;2.59;74.01
40612;BME280;26317;44.894;20.286;2023-03-13T04:41:34;101352.44;;;2.93;74.15
40612;BME280;26317;44.894;20.286;2023-03-13T04:44:46;101340.41;;;2.91;73.74
40612;BME280;26317;44.894;20.286;2023-03-13T04:47:48;101345.94;;;2.96;73.81
40612;BME280;26317;44.894;20.286;2023-03-13T04:50:57;101333.06;;;2.86;74.02
40612;BME280;26317;44.894;20.286;2023-03-13T04:53:51;101330.59;;;2.85;73.82
40612;BME280;26317;44.894;20.286;2023-03-13T04:56:42;101344.06;;;2.90;73.77
40612;BME280;26317;44.894;20.286;2023-03-13T04:59:50;101304.06;;;2.58;74.00
40612;BME280;26317;44.894;20.286;2023-03-13T05:02:46;101359.97;;;2.90;74.04
40612;BME280;26317;44.894;20.286;2023-03-13T05:05:32;101333.66;;;2.75;73.83
40612;BME280;26317;44.894;20.286;2023-03-13T05:08:38;101299.38;;;2.60;73.58
40612;BME280;26317;44.894;20.286;2023-03-13T05:11:27;101337.50;;;2.72;73.64
40612;BME280;26317;44.894;20.286;2023-03-13T05:14:32;101346.06;;;2.74;73.95
40612;BME280;26317;44.894;20.286;2023-03-13T05:17:36;101335.06;;;2.71;74.15
40612;BME280;26317;44.894;20.286;2023-03-13T05:20:34;101344.44;;;2.73;74.23
40612;BME280;26317;44.894;20.286;2023-03-13T05:23:22;101337.72;;;2.71;74.15
40612;BME280;26317;44.894;20.286;2023-03-13T05:26:29;101324.84;;;2.61;74.15
40612;BME280;26317;44.894;20.286;2023-03-13T05:29:33;101310.38;;;2.57;74.23
40612;BME280;26317;44.894;20.286;2023-03-13T05:32:48;101327.31;;;2.69;74.29
40612;BME280;26317;44.894;20.286;2023-03-13T05:35:55;101340.16;;;2.72;74.17
40612;BME280;26317;44.894;20.286;2023-03-13T05:38:55;101338.31;;;2.73;74.14
40612;BME280;26317;44.894;20.286;2023-03-13T05:42:12;101331.59;;;2.77;74.05
40612;BME280;26317;44.894;20.286;2023-03-13T05:45:31;101338.53;;;2.78;73.84
40612;BME280;26317;44.894;20.286;2023-03-13T05:48:38;101340.19;;;2.79;73.90
40612;BME280;26317;44.894;20.286;2023-03-13T05:51:52;101309.56;;;2.63;74.03
40612;BME280;26317;44.894;20.286;2023-03-13T05:55:04;101338.75;;;2.83;74.11
40612;BME280;26317;44.894;20.286;2023-03-13T06:01:10;101328.19;;;2.96;73.29
40612;BME280;26317;44.894;20.286;2023-03-13T06:04:16;101330.44;;;2.99;73.17
40612;BME280;26317;44.894;20.286;2023-03-13T06:06:52;101328.19;;;3.03;73.04
40612;BME280;26317;44.894;20.286;2023-03-13T06:09:29;101336.97;;;3.10;73.09
40612;BME280;26317;44.894;20.286;2023-03-13T06:12:16;101331.06;;;3.14;73.06
40612;BME280;26317;44.894;20.286;2023-03-13T06:15:01;101331.88;;;3.21;72.58
40612;BME280;26317;44.894;20.286;2023-03-13T06:18:02;101322.91;;;3.22;72.31
40612;BME280;26317;44.894;20.286;2023-03-13T06:20:46;101343.53;;;3.40;72.13
40612;BME280;26317;44.894;20.286;2023-03-13T06:23:28;101333.56;;;3.42;72.23
40612;BME280;26317;44.894;20.286;2023-03-13T06:26:16;101351.47;;;3.47;72.35
40612;BME280;26317;44.894;20.286;2023-03-13T06:29:11;101357.81;;;3.59;72.26
40612;BME280;26317;44.894;20.286;2023-03-13T06:31:54;101348.59;;;3.68;71.99
40612;BME280;26317;44.894;20.286;2023-03-13T06:34:36;101338.63;;;3.83;72.18
40612;BME280;26317;44.894;20.286;2023-03-13T06:37:17;101333.91;;;3.92;71.97
40612;BME280;26317;44.894;20.286;2023-03-13T06:39:57;101322.06;;;3.88;72.33
40612;BME280;26317;44.894;20.286;2023-03-13T06:42:47;101363.63;;;4.13;71.94
40612;BME280;26317;44.894;20.286;2023-03-13T06:45:35;101356.28;;;4.22;71.48
40612;BME280;26317;44.894;20.286;2023-03-13T06:48:15;101326.91;;;4.17;71.53
40612;BME280;26317;44.894;20.286;2023-03-13T06:50:56;101354.56;;;4.47;71.55
40612;BME280;26317;44.894;20.286;2023-03-13T06:53:40;101344.31;;;4.57;71.33
40612;BME280;26317;44.894;20.286;2023-03-13T06:56:20;101329.75;;;4.67;71.18
40612;BME280;26317;44.894;20.286;2023-03-13T06:58:53;101331.72;;;4.78;70.71
40612;BME280;26317;44.894;20.286;2023-03-13T07:01:33;101324.13;;;4.88;70.96
40612;BME280;26317;44.894;20.286;2023-03-13T07:04:12;101315.91;;;4.96;70.66
40612;BME280;26317;44.894;20.286;2023-03-13T07:06:56;101331.97;;;5.07;71.33
40612;BME280;26317;44.894;20.286;2023-03-13T07:09:32;101318.63;;;5.14;71.52
40612;BME280;26317;44.894;20.286;2023-03-13T07:12:13;101320.16;;;5.28;71.53
40612;BME280;26317;44.894;20.286;2023-03-13T07:14:51;101320.88;;;5.42;69.87
40612;BME280;26317;44.894;20.286;2023-03-13T07:17:29;101308.53;;;5.47;68.52
40612;BME280;26317;44.894;20.286;2023-03-13T07:20:07;101298.41;;;5.56;67.01
40612;BME280;26317;44.894;20.286;2023-03-13T07:23:06;101315.25;;;5.75;67.08
40612;BME280;26317;44.894;20.286;2023-03-13T07:25:43;101302.09;;;5.80;65.90
40612;BME280;26317;44.894;20.286;2023-03-13T07:28:21;101300.13;;;5.93;65.35
40612;BME280;26317;44.894;20.286;2023-03-13T07:30:54;101290.00;;;6.02;65.68
40612;BME280;26317;44.894;20.286;2023-03-13T07:33:33;101297.28;;;6.13;64.53
40612;BME280;26317;44.894;20.286;2023-03-13T07:36:13;101305.69;;;6.28;63.00
40612;BME280;26317;44.894;20.286;2023-03-13T07:39:11;101295.13;;;6.22;62.57
40612;BME280;26317;44.894;20.286;2023-03-13T07:41:49;101288.66;;;6.29;61.87
40612;BME280;26317;44.894;20.286;2023-03-13T07:44:52;101314.38;;;6.54;61.98
40612;BME280;26317;44.894;20.286;2023-03-13T07:47:39;101314.78;;;6.69;60.28
40612;BME280;26317;44.894;20.286;2023-03-13T07:50:23;101309.53;;;6.80;59.56
40612;BME280;26317;44.894;20.286;2023-03-13T07:52:55;101304.44;;;6.90;59.92
40612;BME280;26317;44.894;20.286;2023-03-13T07:55:36;101296.22;;;6.92;58.16
40612;BME280;26317;44.894;20.286;2023-03-13T07:58:17;101304.38;;;7.09;57.10
40612;BME280;26317;44.894;20.286;2023-03-13T08:00:58;101308.69;;;7.21;58.74
40612;BME280;26317;44.894;20.286;2023-03-13T08:03:50;101301.41;;;7.28;57.42
40612;BME280;26317;44.894;20.286;2023-03-13T08:06:33;101300.59;;;7.39;56.54
40612;BME280;26317;44.894;20.286;2023-03-13T08:09:21;101310.13;;;7.47;55.82
40612;BME280;26317;44.894;20.286;2023-03-13T08:12:03;101302.81;;;7.54;54.50
40612;BME280;26317;44.894;20.286;2023-03-13T08:14:41;101298.06;;;7.68;53.77
40612;BME280;26317;44.894;20.286;2023-03-13T08:17:21;101274.81;;;7.68;53.68
40612;BME280;26317;44.894;20.286;2023-03-13T08:19:54;101286.75;;;7.89;53.09
40612;BME280;26317;44.894;20.286;2023-03-13T08:22:30;101289.31;;;8.07;53.01
40612;BME280;26317;44.894;20.286;2023-03-13T08:25:08;101269.66;;;8.13;53.26
40612;BME280;26317;44.894;20.286;2023-03-13T08:27:59;101259.88;;;8.19;53.58
40612;BME280;26317;44.894;20.286;2023-03-13T08:30:39;101265.09;;;8.37;51.17
40612;BME280;26317;44.894;20.286;2023-03-13T08:33:17;101257.41;;;8.41;50.34
40612;BME280;26317;44.894;20.286;2023-03-13T08:35:56;101219.66;;;8.25;48.95
40612;BME280;26317;44.894;20.286;2023-03-13T08:38:46;101250.47;;;8.56;48.24
40612;BME280;26317;44.894;20.286;2023-03-13T08:41:36;101255.34;;;8.59;51.14
40612;BME280;26317;44.894;20.286;2023-03-13T08:44:19;101261.06;;;8.80;49.40
40612;BME280;26317;44.894;20.286;2023-03-13T08:46:58;101259.63;;;8.89;46.69
40612;BME280;26317;44.894;20.286;2023-03-13T08:49:38;101238.84;;;8.79;47.74
40612;BME280;26317;44.894;20.286;2023-03-13T08:52:22;101214.69;;;8.74;47.34
40612;BME280;26317;44.894;20.286;2023-03-13T08:55:12;101264.50;;;9.08;46.39
40612;BME280;26317;44.894;20.286;2023-03-13T08:58:03;101267.72;;;9.27;44.59
40612;BME280;26317;44.894;20.286;2023-03-13T09:00:44;101221.69;;;9.08;43.01
40612;BME280;26317;44.894;20.286;2023-03-13T09:03:26;101269.66;;;9.48;42.04
40612;BME280;26317;44.894;20.286;2023-03-13T09:06:10;101254.31;;;9.60;41.74
40612;BME280;26317;44.894;20.286;2023-03-13T09:08:59;101271.09;;;9.73;39.83
40612;BME280;26317;44.894;20.286;2023-03-13T09:11:45;101253.09;;;9.68;40.58
40612;BME280;26317;44.894;20.286;2023-03-13T09:14:25;101272.59;;;9.85;41.03
40612;BME280;26317;44.894;20.286;2023-03-13T09:17:21;101265.72;;;9.89;40.51
40612;BME280;26317;44.894;20.286;2023-03-13T09:20:02;101260.66;;;9.93;40.01
40612;BME280;26317;44.894;20.286;2023-03-13T09:22:54;101280.25;;;10.15;38.82
40612;BME280;26317;44.894;20.286;2023-03-13T09:25:33;101268.84;;;10.25;35.29
40612;BME280;26317;44.894;20.286;2023-03-13T09:28:17;101266.69;;;10.22;34.82
40612;BME280;26317;44.894;20.286;2023-03-13T09:31:10;101267.34;;;10.34;34.80
40612;BME280;26317;44.894;20.286;2023-03-13T09:34:00;101261.31;;;10.43;35.42
40612;BME280;26317;44.894;20.286;2023-03-13T09:36:39;101262.66;;;10.46;36.58
40612;BME280;26317;44.894;20.286;2023-03-13T09:39:18;101264.81;;;10.49;37.18
40612;BME280;26317;44.894;20.286;2023-03-13T09:42:02;101230.13;;;10.37;35.62
40612;BME280;26317;44.894;20.286;2023-03-13T09:44:45;101256.38;;;10.62;36.93
40612;BME280;26317;44.894;20.286;2023-03-13T09:47:35;101254.34;;;10.74;35.24
40612;BME280;26317;44.894;20.286;2023-03-13T09:50:20;101256.03;;;10.80;35.72
40612;BME280;26317;44.894;20.286;2023-03-13T09:53:10;101253.19;;;10.92;35.67
40612;BME280;26317;44.894;20.286;2023-03-13T09:55:52;101248.41;;;10.99;33.13
40612;BME280;26317;44.894;20.286;2023-03-13T09:58:43;101248.22;;;11.05;33.99
40612;BME280;26317;44.894;20.286;2023-03-13T10:01:27;101236.72;;;11.15;33.49
40612;BME280;26317;44.894;20.286;2023-03-13T10:07:01;101224.72;;;11.28;32.93
40612;BME280;26317;44.894;20.286;2023-03-13T10:09:44;101202.44;;;11.27;33.45
40612;BME280;26317;44.894;20.286;2023-03-13T10:12:30;101206.28;;;11.41;34.09
40612;BME280;26317;44.894;20.286;2023-03-13T10:15:28;101203.38;;;11.48;34.51
40612;BME280;26317;44.894;20.286;2023-03-13T10:18:19;101200.47;;;11.54;33.62
40612;BME280;26317;44.894;20.286;2023-03-13T10:21:11;101159.00;;;11.40;31.85
40612;BME280;26317;44.894;20.286;2023-03-13T10:24:04;101184.13;;;11.66;31.89
40612;BME280;26317;44.894;20.286;2023-03-13T10:26:45;101190.16;;;11.83;31.93
40612;BME280;26317;44.894;20.286;2023-03-13T10:29:33;101182.66;;;11.85;30.84
40612;BME280;26317;44.894;20.286;2023-03-13T10:32:14;101182.13;;;11.98;31.23
40612;BME280;26317;44.894;20.286;2023-03-13T10:35:00;101133.19;;;11.81;30.32
40612;BME280;26317;44.894;20.286;2023-03-13T10:38:01;101160.41;;;12.10;30.38
40612;BME280;26317;44.894;20.286;2023-03-13T10:40:40;101152.09;;;12.22;29.60
40612;BME280;26317;44.894;20.286;2023-03-13T10:43:20;101132.72;;;12.15;31.07
40612;BME280;26317;44.894;20.286;2023-03-13T10:46:07;101141.88;;;12.34;30.83
40612;BME280;26317;44.894;20.286;2023-03-13T10:48:47;101147.53;;;12.53;28.91
40612;BME280;26317;44.894;20.286;2023-03-13T10:51:32;101137.84;;;12.62;27.95
40612;BME280;26317;44.894;20.286;2023-03-13T10:54:22;101116.59;;;12.55;28.90
40612;BME280;26317;44.894;20.286;2023-03-13T10:57:30;101114.44;;;12.67;32.34
40612;BME280;26317;44.894;20.286;2023-03-13T11:00:28;101130.28;;;12.99;33.99
40612;BME280;26317;44.894;20.286;2023-03-13T11:03:22;101107.41;;;13.12;33.35
40612;BME280;26317;44.894;20.286;2023-03-13T11:06:33;101106.28;;;13.28;32.79
40612;BME280;26317;44.894;20.286;2023-03-13T11:09:24;101096.88;;;13.20;30.62
40612;BME280;26317;44.894;20.286;2023-03-13T11:12:16;101101.41;;;13.35;28.41
40612;BME280;26317;44.894;20.286;2023-03-13T11:18:40;101090.56;;;13.50;29.35
40612;BME280;26317;44.894;20.286;2023-03-13T11:21:22;101092.44;;;13.60;26.47
40612;BME280;26317;44.894;20.286;2023-03-13T11:24:14;101088.91;;;13.64;25.42
40612;BME280;26317;44.894;20.286;2023-03-13T11:26:57;101077.28;;;13.69;28.79
40612;BME280;26317;44.894;20.286;2023-03-13T11:29:54;101070.50;;;13.76;25.79
40612;BME280;26317;44.894;20.286;2023-03-13T11:32:41;101061.84;;;13.79;26.79
40612;BME280;26317;44.894;20.286;2023-03-13T11:35:21;101061.22;;;13.93;27.45
40612;BME280;26317;44.894;20.286;2023-03-13T11:38:14;101066.53;;;14.03;27.33
40612;BME280;26317;44.894;20.286;2023-03-13T11:41:12;101053.03;;;14.08;26.46
40612;BME280;26317;44.894;20.286;2023-03-13T11:47:03;101056.91;;;14.31;26.46
40612;BME280;26317;44.894;20.286;2023-03-13T11:49:59;101051.16;;;14.42;25.70
40612;BME280;26317;44.894;20.286;2023-03-13T11:52:49;101046.22;;;14.49;26.07
40612;BME280;26317;44.894;20.286;2023-03-13T11:55:54;101052.31;;;14.65;25.48
40612;BME280;26317;44.894;20.286;2023-03-13T11:59:17;101035.19;;;14.74;24.21
40612;BME280;26317;44.894;20.286;2023-03-13T12:02:21;101033.75;;;14.82;23.57
40612;BME280;26317;44.894;20.286;2023-03-13T12:05:08;101022.09;;;14.87;23.93
40612;BME280;26317;44.894;20.286;2023-03-13T12:07:58;101027.38;;;14.97;23.40
40612;BME280;26317;44.894;20.286;2023-03-13T12:10:51;101010.91;;;14.98;23.38
40612;BME280;26317;44.894;20.286;2023-03-13T12:13:48;100976.94;;;14.92;22.93
40612;BME280;26317;44.894;20.286;2023-03-13T12:16:44;100990.63;;;15.19;22.97
40612;BME280;26317;44.894;20.286;2023-03-13T12:19:31;100985.91;;;15.30;22.77
40612;BME280;26317;44.894;20.286;2023-03-13T12:22:22;100946.53;;;15.24;23.32
40612;BME280;26317;44.894;20.286;2023-03-13T12:25:13;100971.53;;;15.53;22.22
40612;BME280;26317;44.894;20.286;2023-03-13T12:28:04;100971.91;;;15.65;22.01
40612;BME280;26317;44.894;20.286;2023-03-13T12:30:51;100935.97;;;15.65;22.63
40612;BME280;26317;44.894;20.286;2023-03-13T12:33:37;100950.25;;;15.84;22.20
40612;BME280;26317;44.894;20.286;2023-03-13T12:36:28;100945.47;;;15.95;21.62
40612;BME280;26317;44.894;20.286;2023-03-13T12:39:20;100915.38;;;15.83;20.83
40612;BME280;26317;44.894;20.286;2023-03-13T12:42:12;100924.63;;;15.95;20.88
40612;BME280;26317;44.894;20.286;2023-03-13T12:45:03;100936.31;;;16.09;21.50
40612;BME280;26317;44.894;20.286;2023-03-13T12:48:22;100926.69;;;16.17;20.18
40612;BME280;26317;44.894;20.286;2023-03-13T12:51:10;100911.66;;;16.25;19.12
40612;BME280;26317;44.894;20.286;2023-03-13T12:54:10;100920.88;;;16.37;20.61
40612;BME280;26317;44.894;20.286;2023-03-13T12:57:20;100929.31;;;16.49;21.85
40612;BME280;26317;44.894;20.286;2023-03-13T13:00:10;100918.34;;;16.60;22.00
40612;BME280;26317;44.894;20.286;2023-03-13T13:03:08;100909.41;;;16.73;20.85
40612;BME280;26317;44.894;20.286;2023-03-13T13:06:02;100899.47;;;16.82;19.82
40612;BME280;26317;44.894;20.286;2023-03-13T13:09:17;100902.47;;;16.94;20.11
40612;BME280;26317;44.894;20.286;2023-03-13T13:11:56;100903.03;;;17.05;19.32
40612;BME280;26317;44.894;20.286;2023-03-13T13:18:12;100902.19;;;17.18;19.47
40612;BME280;26317;44.894;20.286;2023-03-13T13:21:25;100883.03;;;17.14;20.32
40612;BME280;26317;44.894;20.286;2023-03-13T13:27:31;100898.97;;;17.52;20.88
40612;BME280;26317;44.894;20.286;2023-03-13T13:30:36;100890.97;;;17.69;21.45
40612;BME280;26317;44.894;20.286;2023-03-13T13:36:50;100873.94;;;17.99;20.84
40612;BME280;26317;44.894;20.286;2023-03-13T13:39:38;100874.44;;;18.10;19.99
40612;BME280;26317;44.894;20.286;2023-03-13T13:45:43;100865.72;;;18.21;20.63
40612;BME280;26317;44.894;20.286;2023-03-13T13:48:35;100869.56;;;18.29;20.33
40612;BME280;26317;44.894;20.286;2023-03-13T13:51:25;100861.38;;;18.20;20.41
40612;BME280;26317;44.894;20.286;2023-03-13T13:54:27;100856.75;;;18.21;20.15
40612;BME280;26317;44.894;20.286;2023-03-13T13:57:10;100852.25;;;18.16;21.40
40612;BME280;26317;44.894;20.286;2023-03-13T13:59:56;100851.66;;;18.19;19.58
40612;BME280;26317;44.894;20.286;2023-03-13T14:02:38;100841.69;;;18.06;19.87
40612;BME280;26317;44.894;20.286;2023-03-13T14:05:22;100844.09;;;18.08;20.22
40612;BME280;26317;44.894;20.286;2023-03-13T14:08:07;100839.75;;;17.98;20.46
40612;BME280;26317;44.894;20.286;2023-03-13T14:11:02;100828.06;;;17.89;20.10
40612;BME280;26317;44.894;20.286;2023-03-13T14:13:46;100827.84;;;17.77;20.45
40612;BME280;26317;44.894;20.286;2023-03-13T14:16:45;100822.22;;;17.73;20.23
40612;BME280;26317;44.894;20.286;2023-03-13T14:19:27;100814.84;;;17.65;20.85
40612;BME280;26317;44.894;20.286;2023-03-13T14:22:07;100805.53;;;17.58;20.82
40612;BME280;26317;44.894;20.286;2023-03-13T14:24:57;100802.00;;;17.57;21.31
40612;BME280;26317;44.894;20.286;2023-03-13T14:27:31;100796.81;;;17.47;22.92
40612;BME280;26317;44.894;20.286;2023-03-13T14:30:16;100807.22;;;17.54;22.25
40612;BME280;26317;44.894;20.286;2023-03-13T14:32:58;100799.81;;;17.59;22.65
40612;BME280;26317;44.894;20.286;2023-03-13T14:35:37;100790.22;;;17.62;22.29
40612;BME280;26317;44.894;20.286;2023-03-13T14:38:23;100761.41;;;17.43;22.65
40612;BME280;26317;44.894;20.286;2023-03-13T14:41:04;100776.50;;;17.58;23.00
40612;BME280;26317;44.894;20.286;2023-03-13T14:44:13;100779.50;;;17.57;23.15
40612;BME280;26317;44.894;20.286;2023-03-13T14:47:03;100768.66;;;17.57;23.91
40612;BME280;26317;44.894;20.286;2023-03-13T14:49:39;100759.91;;;17.60;24.89
40612;BME280;26317;44.894;20.286;2023-03-13T14:52:23;100770.00;;;17.68;23.99
40612;BME280;26317;44.894;20.286;2023-03-13T14:55:24;100768.09;;;17.68;24.14
40612;BME280;26317;44.894;20.286;2023-03-13T14:58:28;100746.16;;;17.56;24.28
40612;BME280;26317;44.894;20.286;2023-03-13T15:01:11;100747.03;;;17.65;24.19
40612;BME280;26317;44.894;20.286;2023-03-13T15:03:48;100762.38;;;17.70;24.39
40612;BME280;26317;44.894;20.286;2023-03-13T15:06:31;100760.75;;;17.69;25.33
40612;BME280;26317;44.894;20.286;2023-03-13T15:09:21;100756.94;;;17.78;25.66